createdAt,value
2019-05-18T00:04:20.146Z,99.90
2019-05-18T00:09:21.282Z,99.90
2019-05-18T00:14:22.417Z,99.90
2019-05-18T00:19:23.575Z,99.90
2019-05-18T00:24:24.667Z,99.90
2019-05-18T00:29:25.820Z,99.90
2019-05-18T00:34:27.021Z,99.90
2019-05-18T00:39:28.159Z,99.90
2019-05-18T00:44:29.361Z,99.90
2019-05-18T00:49:30.457Z,99.90
2019-05-18T00:54:31.643Z,99.90
2019-05-18T00:59:32.736Z,99.90
2019-05-18T01:04:33.836Z,99.90
2019-05-18T01:09:34.949Z,99.90
2019-05-18T01:14:36.032Z,99.90
2019-05-18T01:19:37.136Z,99.90
2019-05-18T01:24:38.229Z,99.90
2019-05-18T01:29:39.323Z,99.90
2019-05-18T01:34:40.414Z,99.90
2019-05-18T01:39:41.528Z,99.90
2019-05-18T01:44:42.632Z,99.90
2019-05-18T01:49:43.836Z,99.90
2019-05-18T01:54:45.026Z,99.90
2019-05-18T01:59:46.096Z,99.90
2019-05-18T02:04:47.193Z,99.90
2019-05-18T02:09:48.938Z,99.90
2019-05-18T02:14:50.025Z,99.90
2019-05-18T02:19:51.180Z,99.90
2019-05-18T02:24:52.311Z,99.90
2019-05-18T02:29:53.405Z,99.90
2019-05-18T02:34:54.491Z,99.90
2019-05-18T02:39:56.103Z,99.90
2019-05-18T02:44:57.307Z,99.90
2019-05-18T02:49:58.404Z,99.90
2019-05-18T02:54:59.540Z,99.90
2019-05-18T03:00:00.869Z,99.90
2019-05-18T03:05:03.937Z,99.90
2019-05-18T03:10:05.664Z,99.90
2019-05-18T03:15:07.668Z,99.90
2019-05-18T03:20:10.050Z,99.90
2019-05-18T03:25:11.345Z,99.90
2019-05-18T03:30:12.669Z,99.90
2019-05-18T03:35:13.958Z,99.90
2019-05-18T03:40:15.271Z,99.90
2019-05-18T03:45:16.356Z,99.90
2019-05-18T03:50:17.552Z,99.90
2019-05-18T03:55:18.641Z,99.90
2019-05-18T04:00:19.747Z,99.90
2019-05-18T04:05:20.835Z,99.90
2019-05-18T04:10:24.845Z,99.90
2019-05-18T04:15:25.925Z,99.90
2019-05-18T04:20:27.020Z,99.90
2019-05-18T04:25:28.120Z,99.90
2019-05-18T04:30:29.204Z,99.90
2019-05-18T04:35:30.303Z,99.90
2019-05-18T04:40:31.425Z,99.90
2019-05-18T04:45:32.504Z,99.90
2019-05-18T04:50:33.599Z,99.90
2019-05-18T04:55:34.800Z,99.90
2019-05-18T05:00:35.887Z,99.90
2019-05-18T05:05:36.975Z,99.90
2019-05-18T05:10:38.096Z,99.90
2019-05-18T05:15:39.172Z,99.90
2019-05-18T05:20:40.275Z,99.90
2019-05-18T05:25:41.379Z,99.90
2019-05-18T05:30:42.472Z,99.90
2019-05-18T05:35:43.577Z,99.90
2019-05-18T05:40:44.712Z,99.90
2019-05-18T05:45:45.808Z,99.90
2019-05-18T05:50:46.917Z,99.90
2019-05-18T05:55:48.027Z,99.90
2019-05-18T06:00:49.200Z,99.90
2019-05-18T06:05:50.293Z,99.90
2019-05-18T06:10:51.400Z,99.90
2019-05-18T06:15:52.501Z,99.90
2019-05-18T06:20:53.611Z,99.90
2019-05-18T06:25:54.728Z,99.90
2019-05-18T06:30:55.819Z,99.90
2019-05-18T06:35:56.924Z,99.90
2019-05-18T06:40:58.033Z,99.90
2019-05-18T06:45:59.135Z,99.90
2019-05-18T06:51:07.154Z,99.90
2019-05-18T06:56:03.640Z,99.90
2019-05-18T07:01:06.646Z,99.90
2019-05-18T07:06:07.758Z,99.90
2019-05-18T07:11:08.864Z,99.90
2019-05-18T07:16:09.972Z,99.90
2019-05-18T07:21:21.985Z,99.90
2019-05-18T07:26:14.246Z,99.90
2019-05-18T07:31:15.336Z,99.90
2019-05-18T07:36:16.444Z,99.90
2019-05-18T07:41:17.635Z,99.90
2019-05-18T07:46:18.781Z,99.90
2019-05-18T07:51:19.872Z,99.90
2019-05-18T07:56:21.016Z,99.90
2019-05-18T08:01:22.299Z,99.90
2019-05-18T08:06:23.398Z,99.90
2019-05-18T08:11:24.499Z,99.90
2019-05-18T08:16:25.582Z,99.90
2019-05-18T08:21:26.690Z,99.90
2019-05-18T08:26:27.804Z,99.90
2019-05-18T08:31:28.909Z,99.90
2019-05-18T08:36:30.011Z,99.90
2019-05-18T08:41:31.308Z,99.90
2019-05-18T08:46:32.401Z,99.90
2019-05-18T08:51:33.499Z,99.90
2019-05-18T08:56:34.609Z,99.90
2019-05-18T09:01:35.691Z,99.90
2019-05-18T09:06:36.793Z,99.90
2019-05-18T09:11:37.950Z,99.90
2019-05-18T09:16:39.053Z,99.90
2019-05-18T09:21:40.146Z,99.90
2019-05-18T09:26:41.262Z,99.90
2019-05-18T09:31:42.457Z,99.90
2019-05-18T09:36:43.593Z,98.20
2019-05-18T09:41:44.916Z,91.80
2019-05-18T09:46:46.099Z,86.30
2019-05-18T09:51:47.191Z,75.60
2019-05-18T09:56:48.394Z,82.10
2019-05-18T10:01:49.511Z,80.90
2019-05-18T10:06:50.665Z,81.10
2019-05-18T10:11:51.859Z,83.40
2019-05-18T10:16:53.026Z,76.20
2019-05-18T10:21:54.243Z,71.70
2019-05-18T10:26:55.338Z,64.10
2019-05-18T10:31:56.439Z,63.40
2019-05-18T10:36:57.555Z,64.20
2019-05-18T10:41:58.675Z,65.50
2019-05-18T10:46:59.795Z,63.10
2019-05-18T10:52:00.899Z,63.40
2019-05-18T10:57:02.095Z,61.40
2019-05-18T11:02:04.104Z,58.20
2019-05-18T11:07:05.319Z,54.00
2019-05-18T11:12:06.433Z,57.20
2019-05-18T11:17:07.630Z,52.50
2019-05-18T11:22:09.022Z,50.80
2019-05-18T11:27:10.225Z,49.10
2019-05-18T11:32:11.919Z,49.70
2019-05-18T11:37:13.025Z,44.60
2019-05-18T11:42:14.129Z,42.80
2019-05-18T11:47:15.419Z,45.20
2019-05-18T11:52:16.524Z,44.50
2019-05-18T11:57:17.625Z,47.10
2019-05-18T12:02:18.728Z,44.70
2019-05-18T12:07:19.824Z,48.20
2019-05-18T12:12:21.056Z,50.00
2019-05-18T12:17:22.363Z,50.60
2019-05-18T12:22:23.487Z,51.10
2019-05-18T12:27:24.610Z,54.10
2019-05-18T12:32:25.728Z,52.50
2019-05-18T12:37:26.830Z,51.10
2019-05-18T12:42:27.975Z,50.10
2019-05-18T12:47:29.213Z,52.80
2019-05-18T12:52:30.312Z,52.30
2019-05-18T12:57:31.424Z,50.80
2019-05-18T13:02:32.516Z,49.20
2019-05-18T13:07:33.721Z,54.50
2019-05-18T13:12:34.925Z,58.30
2019-05-18T13:17:36.029Z,62.70
2019-05-18T13:22:37.441Z,85.40
2019-05-18T13:27:40.044Z,99.90
2019-05-18T13:32:41.380Z,98.70
2019-05-18T13:37:43.663Z,96.60
2019-05-18T13:42:44.823Z,96.90
2019-05-18T13:47:45.991Z,93.70
2019-05-18T13:52:47.128Z,92.10
2019-05-18T13:57:48.251Z,95.50
2019-05-18T14:02:49.335Z,99.90
2019-05-18T14:07:50.442Z,99.90
2019-05-18T14:12:51.584Z,99.90
2019-05-18T14:17:52.785Z,96.60
2019-05-18T14:22:53.880Z,99.20
2019-05-18T14:27:54.969Z,99.90
2019-05-18T14:32:56.180Z,99.90
2019-05-18T14:37:57.304Z,98.70
2019-05-18T14:42:58.424Z,99.90
2019-05-18T14:47:59.623Z,99.90
2019-05-18T14:53:00.731Z,99.00
2019-05-18T14:58:02.066Z,99.40
2019-05-18T15:03:03.364Z,99.90
2019-05-18T15:08:04.481Z,99.90
2019-05-18T15:13:05.719Z,99.90
2019-05-18T15:18:06.941Z,99.90
2019-05-18T15:23:08.039Z,99.90
2019-05-18T15:28:09.150Z,99.90
2019-05-18T15:33:10.268Z,99.70
2019-05-18T15:38:11.355Z,96.50
2019-05-18T15:43:12.466Z,96.20
2019-05-18T15:48:13.573Z,93.30
2019-05-18T15:53:14.877Z,90.10
2019-05-18T15:58:16.089Z,91.60
2019-05-18T16:03:17.225Z,92.30
2019-05-18T16:08:18.424Z,94.60
2019-05-18T16:13:19.552Z,95.00
2019-05-18T16:18:20.757Z,98.00
2019-05-18T16:23:21.988Z,94.00
2019-05-18T16:28:23.516Z,95.00
2019-05-18T16:33:24.654Z,95.70
2019-05-18T16:38:25.820Z,93.00
2019-05-18T16:43:26.927Z,96.10
2019-05-18T16:48:28.021Z,95.90
2019-05-18T16:53:29.126Z,96.40
2019-05-18T16:58:30.232Z,98.70
2019-05-18T17:03:31.335Z,99.90
2019-05-18T17:08:32.449Z,99.90
2019-05-18T17:13:33.544Z,99.90
2019-05-18T17:18:34.681Z,99.90
2019-05-18T17:23:35.776Z,99.90
2019-05-18T17:28:36.924Z,99.90
2019-05-18T17:33:38.144Z,99.90
2019-05-18T17:38:39.336Z,99.90
2019-05-18T17:43:40.581Z,99.90
2019-05-18T17:48:41.678Z,99.90
2019-05-18T17:53:42.767Z,99.90
2019-05-18T17:58:44.255Z,99.90
2019-05-18T18:03:45.337Z,99.90
2019-05-18T18:08:46.448Z,99.90
2019-05-18T18:13:47.662Z,99.90
2019-05-18T18:18:48.860Z,99.90
2019-05-18T18:23:54.712Z,99.90
2019-05-18T18:28:53.323Z,99.90
2019-05-18T18:33:54.432Z,99.90
2019-05-18T18:38:55.642Z,99.90
2019-05-18T18:43:56.742Z,99.90
2019-05-18T18:48:57.881Z,99.90
2019-05-18T18:53:58.976Z,99.90
2019-05-18T18:59:00.475Z,99.90
2019-05-18T19:04:01.583Z,99.90
2019-05-18T19:09:04.991Z,99.90
2019-05-18T19:14:06.399Z,99.90
2019-05-18T19:19:07.499Z,99.90
2019-05-18T19:24:08.704Z,99.90
2019-05-18T19:29:09.932Z,99.90
2019-05-18T19:34:11.038Z,99.90
2019-05-18T19:39:12.145Z,99.90
2019-05-18T19:44:13.256Z,99.90
2019-05-18T19:49:14.353Z,99.90
2019-05-18T19:54:15.467Z,99.90
2019-05-18T19:59:16.611Z,99.90
2019-05-18T20:04:17.715Z,99.90
2019-05-18T20:09:18.837Z,99.90
2019-05-18T20:14:19.952Z,99.90
2019-05-18T20:19:21.061Z,99.90
2019-05-18T20:24:22.475Z,99.90
2019-05-18T20:29:23.619Z,99.90
2019-05-18T20:34:25.195Z,99.90
2019-05-18T20:39:26.295Z,99.90
2019-05-18T20:44:27.416Z,99.90
2019-05-18T20:49:28.529Z,99.90
2019-05-18T20:54:29.638Z,99.90
2019-05-18T20:59:30.744Z,99.90
2019-05-18T21:04:31.844Z,99.90
2019-05-18T21:09:34.395Z,99.90
2019-05-18T21:14:38.522Z,99.90
2019-05-18T21:19:39.652Z,99.90
2019-05-18T21:24:40.886Z,99.90
2019-05-18T21:29:44.065Z,99.90
2019-05-18T21:34:45.255Z,99.90
2019-05-18T21:39:46.364Z,99.90
2019-05-18T21:44:47.486Z,99.90
2019-05-18T21:49:48.597Z,99.90
2019-05-18T21:54:49.774Z,99.90
2019-05-18T21:59:51.004Z,99.90
2019-05-18T22:04:52.123Z,99.90
2019-05-18T22:09:53.879Z,99.90
2019-05-18T22:14:55.194Z,99.90
2019-05-18T22:19:56.281Z,99.90
2019-05-18T22:24:57.380Z,99.90
2019-05-18T22:29:58.500Z,99.90
2019-05-18T22:34:59.585Z,99.90
2019-05-18T22:40:00.708Z,99.90
2019-05-18T22:45:02.383Z,99.90
2019-05-18T22:50:06.570Z,99.90
2019-05-18T22:55:07.800Z,99.90
2019-05-18T23:00:09.435Z,99.90
2019-05-18T23:05:10.918Z,99.90
2019-05-18T23:10:12.145Z,99.90
2019-05-18T23:15:13.700Z,99.90
2019-05-18T23:20:15.010Z,99.90
2019-05-18T23:25:16.201Z,99.90
2019-05-18T23:30:17.508Z,99.90
2019-05-18T23:35:18.636Z,99.90
2019-05-18T23:40:20.001Z,99.90
2019-05-18T23:45:21.223Z,99.90
2019-05-18T23:50:22.416Z,99.90
2019-05-18T23:55:23.529Z,99.90
